createdAt,value
2018-05-26T00:00:26.127Z,100569.37
2018-05-26T00:02:53.579Z,100570.13
2018-05-26T00:05:21.259Z,100572.00
2018-05-26T00:07:48.716Z,100569.75
2018-05-26T00:10:16.178Z,100565.03
2018-05-26T00:12:43.666Z,100566.39
2018-05-26T00:15:11.127Z,100559.28
2018-05-26T00:17:38.604Z,100556.11
2018-05-26T00:20:06.068Z,100556.52
2018-05-26T00:22:33.555Z,100562.46
2018-05-26T00:25:01.027Z,100561.64
2018-05-26T00:27:28.492Z,100557.59
2018-05-26T00:29:55.989Z,100560.16
2018-05-26T00:32:23.447Z,100560.73
2018-05-26T00:34:50.927Z,100564.00
2018-05-26T00:37:18.383Z,100569.64
2018-05-26T00:39:45.888Z,100567.39
2018-05-26T00:42:13.343Z,100562.11
2018-05-26T00:44:40.827Z,100564.78
2018-05-26T00:47:08.305Z,100560.64
2018-05-26T00:49:35.764Z,100557.73
2018-05-26T00:52:03.271Z,100563.77
2018-05-26T00:54:30.739Z,100553.19
2018-05-26T00:56:58.430Z,100555.26
2018-05-26T00:59:25.892Z,100556.28
2018-05-26T01:01:53.355Z,100554.87
2018-05-26T01:04:20.832Z,100554.12
2018-05-26T01:06:48.303Z,100552.66
2018-05-26T01:09:15.783Z,100552.49
2018-05-26T01:11:43.235Z,100551.09
2018-05-26T01:14:10.728Z,100550.86
2018-05-26T01:16:38.187Z,100556.42
2018-05-26T01:19:05.704Z,100552.58
2018-05-26T01:21:33.184Z,100557.31
2018-05-26T01:24:00.641Z,100553.09
2018-05-26T01:26:28.120Z,100554.05
2018-05-26T01:28:55.596Z,100551.48
2018-05-26T01:31:23.086Z,100550.37
2018-05-26T01:33:50.540Z,100549.48
2018-05-26T01:36:18.000Z,100549.46
2018-05-26T01:38:45.484Z,100544.84
2018-05-26T01:41:12.959Z,100550.73
2018-05-26T01:43:40.436Z,100557.47
2018-05-26T01:46:07.887Z,100553.97
2018-05-26T01:48:35.491Z,100554.77
2018-05-26T01:51:02.959Z,100552.13
2018-05-26T01:53:30.437Z,100552.73
2018-05-26T01:55:57.911Z,100558.04
2018-05-26T01:58:25.367Z,100563.41
2018-05-26T02:00:52.843Z,100567.72
2018-05-26T02:03:20.315Z,100561.64
2018-05-26T02:05:47.997Z,100568.98
2018-05-26T02:08:15.473Z,100559.67
2018-05-26T02:10:42.959Z,100557.70
2018-05-26T02:13:10.435Z,100561.78
2018-05-26T02:15:37.891Z,100552.46
2018-05-26T02:18:05.372Z,100554.96
2018-05-26T02:20:32.839Z,100554.77
2018-05-26T02:23:00.319Z,100553.59
2018-05-26T02:25:27.776Z,100551.10
2018-05-26T02:27:55.635Z,100557.38
2018-05-26T02:30:23.104Z,100547.63
2018-05-26T02:32:50.562Z,100554.38
2018-05-26T02:35:18.048Z,100563.70
2018-05-26T02:37:45.508Z,100556.23
2018-05-26T02:40:13.327Z,100559.39
2018-05-26T02:42:40.776Z,100558.44
2018-05-26T02:45:08.256Z,100557.44
2018-05-26T02:47:35.737Z,100557.08
2018-05-26T02:50:03.197Z,100557.98
2018-05-26T02:52:30.703Z,100559.48
2018-05-26T02:54:58.160Z,100561.90
2018-05-26T02:57:25.616Z,100556.31
2018-05-26T02:59:53.100Z,100559.75
2018-05-26T03:02:20.556Z,100563.49
2018-05-26T03:04:53.612Z,100566.53
2018-05-26T03:07:26.743Z,100570.27
2018-05-26T03:09:59.943Z,100569.14
2018-05-26T03:12:32.912Z,100573.44
2018-05-26T03:14:59.831Z,100574.70
2018-05-26T03:17:28.131Z,100574.58
2018-05-26T03:19:55.659Z,100573.20
2018-05-26T03:22:23.111Z,100576.42
2018-05-26T03:24:50.566Z,100574.70
2018-05-26T03:27:18.052Z,100579.40
2018-05-26T03:29:45.511Z,100579.72
2018-05-26T03:32:12.980Z,100572.20
2018-05-26T03:34:40.653Z,100572.09
2018-05-26T03:37:08.107Z,100574.70
2018-05-26T03:39:35.560Z,100578.72
2018-05-26T03:42:03.198Z,100578.54
2018-05-26T03:44:30.668Z,100577.41
2018-05-26T03:46:58.123Z,100576.36
2018-05-26T03:49:25.623Z,100584.37
2018-05-26T03:51:53.076Z,100581.80
2018-05-26T03:54:20.555Z,100587.13
2018-05-26T03:56:59.895Z,100583.14
2018-05-26T03:59:41.264Z,100586.98
2018-05-26T04:02:08.730Z,100582.66
2018-05-26T04:04:37.080Z,100581.75
2018-05-26T04:07:04.556Z,100584.53
2018-05-26T04:09:32.036Z,100583.00
2018-05-26T04:11:59.511Z,100580.45
2018-05-26T04:14:26.963Z,100587.28
2018-05-26T04:16:54.485Z,100591.48
2018-05-26T04:19:21.967Z,100583.77
2018-05-26T04:21:49.467Z,100595.50
2018-05-26T04:24:16.948Z,100597.98
2018-05-26T04:26:44.403Z,100592.69
2018-05-26T04:29:11.884Z,100595.43
2018-05-26T04:31:39.347Z,100596.36
2018-05-26T04:34:06.836Z,100602.52
2018-05-26T04:36:34.299Z,100603.99
2018-05-26T04:39:01.783Z,100609.40
2018-05-26T04:41:29.272Z,100610.78
2018-05-26T04:43:56.730Z,100602.43
2018-05-26T04:46:24.208Z,100606.16
2018-05-26T04:48:51.659Z,100599.42
2018-05-26T04:51:19.516Z,100604.97
2018-05-26T04:53:46.968Z,100611.18
2018-05-26T04:56:14.448Z,100613.58
2018-05-26T04:58:41.960Z,100615.55
2018-05-26T05:01:09.412Z,100619.07
2018-05-26T05:03:36.893Z,100620.95
2018-05-26T05:06:04.354Z,100627.62
2018-05-26T05:08:31.847Z,100631.02
2018-05-26T05:10:59.320Z,100637.08
2018-05-26T05:13:26.795Z,100643.06
2018-05-26T05:15:54.276Z,100642.39
2018-05-26T05:18:21.771Z,100640.97
2018-05-26T05:20:49.247Z,100637.98
2018-05-26T05:23:16.702Z,100640.23
2018-05-26T05:25:44.449Z,100639.10
2018-05-26T05:28:11.904Z,100639.91
2018-05-26T05:30:39.372Z,100634.55
2018-05-26T05:33:06.849Z,100632.38
2018-05-26T05:35:34.342Z,100640.05
2018-05-26T05:38:01.847Z,100636.20
2018-05-26T05:40:29.301Z,100642.32
2018-05-26T05:42:57.163Z,100640.89
2018-05-26T05:45:24.619Z,100646.66
2018-05-26T05:47:52.075Z,100654.71
2018-05-26T05:50:19.572Z,100649.98
2018-05-26T05:52:47.072Z,100647.04
2018-05-26T05:55:14.576Z,100646.23
2018-05-26T05:57:42.032Z,100644.71
2018-05-26T06:00:09.655Z,100645.83
2018-05-26T06:02:37.135Z,100648.16
2018-05-26T06:05:04.591Z,100651.28
2018-05-26T06:07:32.068Z,100658.20
2018-05-26T06:09:59.536Z,100651.46
2018-05-26T06:12:27.005Z,100650.06
2018-05-26T06:14:54.502Z,100655.14
2018-05-26T06:17:22.141Z,100657.80
2018-05-26T06:19:49.598Z,100659.48
2018-05-26T06:22:17.072Z,100656.19
2018-05-26T06:24:44.535Z,100653.41
2018-05-26T06:27:11.988Z,100650.91
2018-05-26T06:29:39.496Z,100645.03
2018-05-26T06:32:06.960Z,100648.25
2018-05-26T06:34:34.463Z,100654.73
2018-05-26T06:37:01.923Z,100654.57
2018-05-26T06:39:29.377Z,100658.03
2018-05-26T06:41:56.859Z,100660.28
2018-05-26T06:44:24.318Z,100658.63
2018-05-26T06:46:51.796Z,100665.83
2018-05-26T06:49:19.263Z,100657.02
2018-05-26T06:51:47.086Z,100656.43
2018-05-26T06:54:14.556Z,100653.13
2018-05-26T06:56:42.035Z,100657.04
2018-05-26T06:59:09.514Z,100654.83
2018-05-26T07:01:36.967Z,100649.19
2018-05-26T07:04:04.460Z,100651.70
2018-05-26T07:06:31.982Z,100654.95
2018-05-26T07:08:59.611Z,100658.84
2018-05-26T07:11:27.079Z,100650.00
2018-05-26T07:13:54.529Z,100653.73
2018-05-26T07:16:22.003Z,100653.80
2018-05-26T07:18:49.460Z,100654.73
2018-05-26T07:21:16.935Z,100655.80
2018-05-26T07:23:44.420Z,100656.20
2018-05-26T07:26:12.132Z,100653.62
2018-05-26T07:28:39.599Z,100656.97
2018-05-26T07:31:07.051Z,100656.73
2018-05-26T07:33:34.528Z,100659.73
2018-05-26T07:36:01.997Z,100662.66
2018-05-26T07:38:29.480Z,100657.84
2018-05-26T07:40:56.956Z,100656.32
2018-05-26T07:43:24.459Z,100657.19
2018-05-26T07:45:51.925Z,100649.86
2018-05-26T07:48:19.383Z,100651.69
2018-05-26T07:50:46.919Z,100659.83
2018-05-26T07:53:14.358Z,100655.59
2018-05-26T07:55:41.852Z,100656.51
2018-05-26T07:58:09.313Z,100664.22
2018-05-26T08:00:36.987Z,100661.47
2018-05-26T08:03:04.445Z,100663.79
2018-05-26T08:05:31.932Z,100668.33
2018-05-26T08:07:59.412Z,100677.19
2018-05-26T08:10:26.864Z,100674.04
2018-05-26T08:12:54.375Z,100672.86
2018-05-26T08:15:21.836Z,100671.97
2018-05-26T08:17:49.362Z,100667.66
2018-05-26T08:20:16.824Z,100667.77
2018-05-26T08:22:44.275Z,100659.95
2018-05-26T08:25:11.759Z,100674.66
2018-05-26T08:27:39.215Z,100671.67
2018-05-26T08:30:06.774Z,100673.91
2018-05-26T08:32:34.243Z,100684.63
2018-05-26T08:35:01.752Z,100688.88
2018-05-26T08:37:29.209Z,100684.81
2018-05-26T08:39:56.660Z,100684.68
2018-05-26T08:42:24.151Z,100685.58
2018-05-26T08:44:51.606Z,100689.16
2018-05-26T08:47:19.230Z,100695.65
2018-05-26T08:49:46.738Z,100695.53
2018-05-26T08:52:14.196Z,100696.82
2018-05-26T08:54:41.703Z,100696.82
2018-05-26T08:57:09.161Z,100694.83
2018-05-26T08:59:36.660Z,100696.72
2018-05-26T09:02:04.128Z,100695.05
2018-05-26T09:04:31.583Z,100693.50
2018-05-26T09:06:59.081Z,100695.41
2018-05-26T09:09:26.543Z,100702.20
2018-05-26T09:11:54.070Z,100694.34
2018-05-26T09:14:21.520Z,100694.23
2018-05-26T09:16:48.971Z,100685.51
2018-05-26T09:19:16.450Z,100687.89
2018-05-26T09:21:43.927Z,100687.36
2018-05-26T09:24:11.562Z,100684.17
2018-05-26T09:26:39.015Z,100679.02
2018-05-26T09:29:06.468Z,100682.41
2018-05-26T09:31:33.931Z,100675.03
2018-05-26T09:34:01.379Z,100672.38
2018-05-26T09:36:28.855Z,100676.08
2018-05-26T09:38:56.316Z,100674.94
2018-05-26T09:41:23.953Z,100681.02
2018-05-26T09:43:51.408Z,100682.52
2018-05-26T09:46:18.859Z,100672.03
2018-05-26T09:48:46.354Z,100673.58
2018-05-26T09:51:13.803Z,100673.21
2018-05-26T09:53:41.267Z,100681.11
2018-05-26T09:56:08.751Z,100673.47
2018-05-26T09:58:36.443Z,100670.70
2018-05-26T10:01:03.922Z,100678.19
2018-05-26T10:03:31.372Z,100681.13
2018-05-26T10:05:58.844Z,100674.97
2018-05-26T10:08:26.311Z,100675.13
2018-05-26T10:10:53.820Z,100673.61
2018-05-26T10:13:21.268Z,100670.08
2018-05-26T10:15:48.995Z,100669.67
2018-05-26T10:18:16.447Z,100673.65
2018-05-26T10:20:43.918Z,100677.03
2018-05-26T10:23:11.394Z,100663.67
2018-05-26T10:25:38.856Z,100661.69
2018-05-26T10:28:06.320Z,100670.06
2018-05-26T10:30:33.780Z,100670.38
2018-05-26T10:33:01.435Z,100661.28
2018-05-26T10:35:28.908Z,100668.09
2018-05-26T10:37:56.365Z,100667.41
2018-05-26T10:40:23.851Z,100666.12
2018-05-26T10:42:51.300Z,100672.00
2018-05-26T10:45:24.508Z,100666.87
2018-05-26T10:47:51.968Z,100667.77
2018-05-26T10:50:19.763Z,100662.39
2018-05-26T10:52:47.211Z,100656.77
2018-05-26T10:55:14.668Z,100653.66
2018-05-26T10:57:42.139Z,100662.17
2018-05-26T11:00:09.584Z,100658.58
2018-05-26T11:02:37.052Z,100660.16
2018-05-26T11:05:04.534Z,100666.36
2018-05-26T11:07:32.177Z,100660.49
2018-05-26T11:09:59.680Z,100658.00
2018-05-26T11:12:27.124Z,100664.41
2018-05-26T11:14:54.600Z,100660.34
2018-05-26T11:17:22.088Z,100664.27
2018-05-26T11:19:49.569Z,100669.00
2018-05-26T11:22:17.022Z,100668.36
2018-05-26T11:24:44.593Z,100671.02
2018-05-26T11:27:11.975Z,100669.80
2018-05-26T11:29:39.428Z,100668.45
2018-05-26T11:32:06.924Z,100662.62
2018-05-26T11:34:34.375Z,100667.15
2018-05-26T11:37:01.887Z,100663.38
2018-05-26T11:39:29.328Z,100666.86
2018-05-26T11:41:57.136Z,100663.90
2018-05-26T11:44:24.588Z,100662.88
2018-05-26T11:46:52.036Z,100663.22
2018-05-26T11:49:19.532Z,100673.92
2018-05-26T11:51:46.987Z,100666.00
2018-05-26T11:54:14.528Z,100669.88
2018-05-26T11:56:41.979Z,100669.27
2018-05-26T11:59:09.420Z,100662.08
2018-05-26T12:01:36.883Z,100662.83
2018-05-26T12:04:04.335Z,100668.34
2018-05-26T12:06:32.064Z,100673.66
2018-05-26T12:08:59.514Z,100674.11
2018-05-26T12:11:26.983Z,100673.18
2018-05-26T12:13:54.481Z,100674.09
2018-05-26T12:16:21.927Z,100670.77
2018-05-26T12:18:49.700Z,100675.45
2018-05-26T12:21:17.339Z,100669.37
2018-05-26T12:23:44.807Z,100666.08
2018-05-26T12:26:12.301Z,100662.52
2018-05-26T12:28:39.751Z,100663.97
2018-05-26T12:31:07.668Z,100663.66
2018-05-26T12:33:35.111Z,100661.45
2018-05-26T12:36:02.596Z,100657.25
2018-05-26T12:38:30.089Z,100649.14
2018-05-26T12:40:57.540Z,100649.48
2018-05-26T12:43:25.228Z,100649.83
2018-05-26T12:45:52.680Z,100649.72
2018-05-26T12:48:20.134Z,100646.30
2018-05-26T12:50:47.632Z,100639.52
2018-05-26T12:53:15.080Z,100639.55
2018-05-26T12:55:42.671Z,100638.11
2018-05-26T12:58:10.123Z,100639.39
2018-05-26T13:00:37.580Z,100633.66
2018-05-26T13:03:05.066Z,100635.19
2018-05-26T13:05:32.528Z,100636.23
2018-05-26T13:07:59.997Z,100634.11
2018-05-26T13:10:27.480Z,100640.59
2018-05-26T13:12:54.963Z,100636.14
2018-05-26T13:15:22.408Z,100642.89
2018-05-26T13:17:49.855Z,100649.80
2018-05-26T13:20:17.323Z,100639.16
2018-05-26T13:22:44.779Z,100644.70
2018-05-26T13:25:12.252Z,100637.59
2018-05-26T13:27:39.729Z,100634.48
2018-05-26T13:30:07.384Z,100624.73
2018-05-26T13:32:34.836Z,100620.53
2018-05-26T13:35:02.291Z,100619.45
2018-05-26T13:37:29.759Z,100617.94
2018-05-26T13:39:57.199Z,100616.98
2018-05-26T13:42:24.671Z,100623.06
2018-05-26T13:44:52.125Z,100615.72
2018-05-26T13:47:19.634Z,100606.95
2018-05-26T13:49:47.088Z,100613.75
2018-05-26T13:52:14.539Z,100608.00
2018-05-26T13:54:42.063Z,100607.85
2018-05-26T13:57:09.476Z,100605.07
2018-05-26T13:59:36.956Z,100604.71
2018-05-26T14:02:04.506Z,100605.31
2018-05-26T14:04:32.331Z,100603.58
2018-05-26T14:06:59.783Z,100603.16
2018-05-26T14:09:27.236Z,100600.28
2018-05-26T14:11:54.721Z,100599.20
2018-05-26T14:14:22.164Z,100609.61
2018-05-26T14:16:49.636Z,100599.50
2018-05-26T14:19:17.081Z,100600.87
2018-05-26T14:21:45.023Z,100605.63
2018-05-26T14:24:12.471Z,100601.94
2018-05-26T14:26:39.920Z,100597.84
2018-05-26T14:29:07.405Z,100592.05
2018-05-26T14:31:34.860Z,100594.99
2018-05-26T14:34:02.332Z,100588.81
2018-05-26T14:36:29.796Z,100587.78
2018-05-26T14:38:57.416Z,100591.00
2018-05-26T14:41:24.863Z,100592.21
2018-05-26T14:43:52.320Z,100588.63
2018-05-26T14:46:19.791Z,100586.89
2018-05-26T14:48:47.237Z,100584.16
2018-05-26T14:51:14.719Z,100583.16
2018-05-26T14:53:42.160Z,100584.86
2018-05-26T14:56:09.660Z,100579.34
2018-05-26T14:58:37.104Z,100581.22
2018-05-26T15:01:04.547Z,100586.86
2018-05-26T15:03:32.020Z,100582.64
2018-05-26T15:05:59.471Z,100582.95
2018-05-26T15:08:26.969Z,100585.61
2018-05-26T15:10:54.452Z,100585.52
2018-05-26T15:13:22.151Z,100586.11
2018-05-26T15:15:49.582Z,100590.31
2018-05-26T15:18:17.032Z,100576.26
2018-05-26T15:20:44.520Z,100582.63
2018-05-26T15:23:11.990Z,100573.65
2018-05-26T15:25:39.460Z,100578.70
2018-05-26T15:28:06.908Z,100577.62
2018-05-26T15:30:34.598Z,100578.06
2018-05-26T15:33:02.045Z,100574.31
2018-05-26T15:35:29.496Z,100566.67
2018-05-26T15:37:56.977Z,100567.20
2018-05-26T15:40:24.424Z,100564.30
2018-05-26T15:42:51.897Z,100569.88
2018-05-26T15:45:19.347Z,100567.41
2018-05-26T15:47:47.083Z,100564.30
2018-05-26T15:50:14.531Z,100551.09
2018-05-26T15:52:41.985Z,100549.79
2018-05-26T15:55:09.472Z,100555.05
2018-05-26T15:57:36.933Z,100556.07
2018-05-26T16:00:04.416Z,100553.53
2018-05-26T16:02:31.880Z,100549.41
2018-05-26T16:04:59.475Z,100548.66
2018-05-26T16:07:26.920Z,100551.73
2018-05-26T16:09:54.367Z,100550.94
2018-05-26T16:12:21.937Z,100547.96
2018-05-26T16:14:49.392Z,100548.72
2018-05-26T16:17:16.859Z,100550.98
2018-05-26T16:19:44.347Z,100542.27
2018-05-26T16:22:11.978Z,100551.39
2018-05-26T16:24:39.432Z,100549.05
2018-05-26T16:27:06.896Z,100551.44
2018-05-26T16:29:34.360Z,100547.66
2018-05-26T16:32:01.816Z,100557.41
2018-05-26T16:34:29.296Z,100555.72
2018-05-26T16:36:56.743Z,100559.70
2018-05-26T16:39:24.364Z,100552.45
2018-05-26T16:41:51.815Z,100559.51
2018-05-26T16:44:19.260Z,100551.05
2018-05-26T16:46:46.735Z,100549.89
2018-05-26T16:49:14.187Z,100550.95
2018-05-26T16:51:41.663Z,100551.66
2018-05-26T16:54:09.107Z,100554.08
2018-05-26T16:56:36.599Z,100555.06
2018-05-26T16:59:04.056Z,100559.20
2018-05-26T17:01:31.508Z,100552.24
2018-05-26T17:03:58.979Z,100552.05
2018-05-26T17:06:26.436Z,100551.73
2018-05-26T17:08:53.913Z,100549.04
2018-05-26T17:11:21.359Z,100549.34
2018-05-26T17:13:48.855Z,100548.73
2018-05-26T17:16:16.364Z,100551.27
2018-05-26T17:18:43.824Z,100551.63
2018-05-26T17:21:11.292Z,100553.38
2018-05-26T17:23:38.739Z,100549.46
2018-05-26T17:26:06.204Z,100546.58
2018-05-26T17:28:33.704Z,100547.08
2018-05-26T17:31:01.328Z,100541.50
2018-05-26T17:33:28.780Z,100543.97
2018-05-26T17:35:56.239Z,100543.03
2018-05-26T17:38:23.707Z,100540.02
2018-05-26T17:40:51.161Z,100539.36
2018-05-26T17:43:18.624Z,100535.95
2018-05-26T17:45:46.093Z,100539.43
2018-05-26T17:48:13.825Z,100540.24
2018-05-26T17:50:41.271Z,100538.52
2018-05-26T17:53:08.720Z,100534.86
2018-05-26T17:55:36.216Z,100531.87
2018-05-26T17:58:03.659Z,100534.44
2018-05-26T18:00:31.136Z,100544.14
2018-05-26T18:02:58.584Z,100548.33
2018-05-26T18:05:26.304Z,100553.08
2018-05-26T18:07:53.749Z,100552.27
2018-05-26T18:10:21.240Z,100548.55
2018-05-26T18:12:48.716Z,100554.31
2018-05-26T18:15:16.199Z,100552.91
2018-05-26T18:17:43.667Z,100550.84
2018-05-26T18:20:11.112Z,100552.09
2018-05-26T18:22:38.732Z,100550.73
2018-05-26T18:25:06.186Z,100554.11
2018-05-26T18:27:33.643Z,100557.08
2018-05-26T18:30:01.111Z,100567.62
2018-05-26T18:32:28.569Z,100557.72
2018-05-26T18:34:56.035Z,100558.26
2018-05-26T18:37:23.486Z,100561.61
2018-05-26T18:39:51.092Z,100560.33
2018-05-26T18:42:18.549Z,100557.09
2018-05-26T18:44:46.016Z,100569.91
2018-05-26T18:47:13.503Z,100564.53
2018-05-26T18:49:40.948Z,100564.62
2018-05-26T18:52:08.427Z,100571.09
2018-05-26T18:54:35.888Z,100575.44
2018-05-26T18:57:03.487Z,100568.78
2018-05-26T18:59:30.927Z,100567.98
2018-05-26T19:01:58.375Z,100567.23
2018-05-26T19:04:25.852Z,100570.81
2018-05-26T19:06:53.304Z,100573.67
2018-05-26T19:09:21.123Z,100580.80
2018-05-26T19:11:48.564Z,100582.89
2018-05-26T19:14:16.009Z,100581.20
2018-05-26T19:16:43.505Z,100586.02
2018-05-26T19:19:10.952Z,100581.66
2018-05-26T19:21:38.438Z,100592.30
2018-05-26T19:24:05.916Z,100586.98
2018-05-26T19:26:33.413Z,100591.98
2018-05-26T19:29:00.856Z,100592.05
2018-05-26T19:31:28.295Z,100600.10
2018-05-26T19:33:55.790Z,100601.25
2018-05-26T19:36:23.272Z,100601.38
2018-05-26T19:38:50.720Z,100600.38
2018-05-26T19:41:18.196Z,100593.72
2018-05-26T19:43:45.669Z,100595.44
2018-05-26T19:46:13.125Z,100588.02
2018-05-26T19:48:40.600Z,100587.06
2018-05-26T19:51:08.048Z,100593.04
2018-05-26T19:53:35.495Z,100595.94
2018-05-26T19:56:02.972Z,100597.67
2018-05-26T19:58:30.444Z,100601.31
2018-05-26T20:00:57.896Z,100600.70
2018-05-26T20:03:25.369Z,100606.13
2018-05-26T20:05:52.811Z,100611.82
2018-05-26T20:08:20.274Z,100608.59
2018-05-26T20:10:47.756Z,100608.55
2018-05-26T20:13:15.224Z,100617.55
2018-05-26T20:15:42.721Z,100624.64
2018-05-26T20:18:10.176Z,100622.91
2018-05-26T20:20:37.620Z,100619.65
2018-05-26T20:23:05.092Z,100626.30
2018-05-26T20:25:32.547Z,100628.06
2018-05-26T20:28:00.032Z,100626.16
2018-05-26T20:30:27.476Z,100628.91
2018-05-26T20:32:54.948Z,100627.32
2018-05-26T20:35:22.432Z,100634.13
2018-05-26T20:37:49.884Z,100629.48
2018-05-26T20:40:17.372Z,100628.30
2018-05-26T20:42:44.819Z,100630.98
2018-05-26T20:45:12.279Z,100635.64
2018-05-26T20:47:39.782Z,100640.53
2018-05-26T20:50:07.242Z,100636.56
2018-05-26T20:52:34.728Z,100635.03
2018-05-26T20:55:02.179Z,100634.00
2018-05-26T20:57:29.624Z,100635.88
2018-05-26T20:59:57.145Z,100633.88
2018-05-26T21:02:24.575Z,100632.94
2018-05-26T21:04:52.327Z,100628.09
2018-05-26T21:07:19.767Z,100632.08
2018-05-26T21:09:47.217Z,100630.06
2018-05-26T21:12:14.707Z,100636.02
2018-05-26T21:14:42.170Z,100634.23
2018-05-26T21:17:10.090Z,100626.25
2018-05-26T21:19:37.607Z,100622.41
2018-05-26T21:22:05.060Z,100622.70
2018-05-26T21:24:32.528Z,100617.11
2018-05-26T21:26:59.979Z,100610.19
2018-05-26T21:29:27.459Z,100610.10
2018-05-26T21:31:54.899Z,100616.76
2018-05-26T21:34:22.343Z,100616.08
2018-05-26T21:36:49.825Z,100616.25
2018-05-26T21:39:17.286Z,100617.78
2018-05-26T21:41:44.771Z,100620.84
2018-05-26T21:44:12.240Z,100626.59
2018-05-26T21:46:39.691Z,100615.99
2018-05-26T21:49:07.160Z,100621.72
2018-05-26T21:51:34.609Z,100622.26
2018-05-26T21:54:02.249Z,100627.22
2018-05-26T21:56:29.700Z,100616.91
2018-05-26T21:58:57.161Z,100623.02
2018-05-26T22:01:24.694Z,100618.80
2018-05-26T22:03:53.107Z,100625.98
2018-05-26T22:06:20.596Z,100624.84
2018-05-26T22:08:48.052Z,100626.10
2018-05-26T22:11:15.507Z,100626.19
2018-05-26T22:13:42.996Z,100620.94
2018-05-26T22:16:10.452Z,100620.30
2018-05-26T22:18:37.956Z,100616.14
2018-05-26T22:21:05.407Z,100616.58
2018-05-26T22:23:32.856Z,100621.05
2018-05-26T22:26:00.338Z,100622.50
2018-05-26T22:28:27.791Z,100612.66
2018-05-26T22:30:55.506Z,100612.14
2018-05-26T22:33:22.959Z,100612.94
2018-05-26T22:35:50.404Z,100612.94
2018-05-26T22:38:17.884Z,100619.97
2018-05-26T22:40:45.341Z,100615.67
2018-05-26T22:43:12.831Z,100613.15
2018-05-26T22:45:40.275Z,100614.36
2018-05-26T22:48:08.001Z,100606.98
2018-05-26T22:50:35.459Z,100614.44
2018-05-26T22:53:02.908Z,100614.91
2018-05-26T22:55:30.376Z,100603.95
2018-05-26T22:57:57.829Z,100610.70
2018-05-26T23:00:27.027Z,100609.39
2018-05-26T23:02:54.467Z,100602.22
2018-05-26T23:05:22.447Z,100608.87
2018-05-26T23:07:49.907Z,100605.55
2018-05-26T23:10:17.360Z,100604.53
2018-05-26T23:12:44.840Z,100604.30
2018-05-26T23:15:12.292Z,100597.31
2018-05-26T23:17:39.783Z,100596.40
2018-05-26T23:20:07.236Z,100605.06
2018-05-26T23:22:34.947Z,100597.70
2018-05-26T23:25:02.388Z,100596.50
2018-05-26T23:27:29.844Z,100592.64
2018-05-26T23:29:57.328Z,100583.94
2018-05-26T23:32:24.768Z,100584.02
2018-05-26T23:34:52.248Z,100577.61
2018-05-26T23:37:19.736Z,100582.91
2018-05-26T23:39:47.434Z,100581.80
2018-05-26T23:42:14.900Z,100585.38
2018-05-26T23:44:42.344Z,100583.23
2018-05-26T23:47:09.823Z,100585.02
2018-05-26T23:49:37.279Z,100581.88
2018-05-26T23:52:04.764Z,100581.53
2018-05-26T23:54:32.223Z,100575.94
2018-05-26T23:56:59.728Z,100571.53
2018-05-26T23:59:27.196Z,100575.23
